createdAt,value
2017-08-20T00:00:50.734Z,3.47
2017-08-20T00:03:20.724Z,3.60
2017-08-20T00:05:50.627Z,2.97
2017-08-20T00:08:20.501Z,3.60
2017-08-20T00:10:50.419Z,2.30
2017-08-20T00:13:20.336Z,3.10
2017-08-20T00:15:50.262Z,3.83
2017-08-20T00:18:20.212Z,3.70
2017-08-20T00:20:50.179Z,4.10
2017-08-20T00:23:20.036Z,3.70
2017-08-20T00:25:49.940Z,3.80
2017-08-20T00:28:19.827Z,3.43
2017-08-20T00:30:49.714Z,3.60
2017-08-20T00:33:20.015Z,3.77
2017-08-20T00:35:50.109Z,3.30
2017-08-20T00:38:20.072Z,3.47
2017-08-20T00:40:50.040Z,3.70
2017-08-20T00:43:19.911Z,3.27
2017-08-20T00:45:49.847Z,3.47
2017-08-20T00:48:19.722Z,3.70
2017-08-20T00:50:49.621Z,3.90
2017-08-20T00:53:19.645Z,4.60
2017-08-20T00:55:49.557Z,3.90
2017-08-20T00:58:19.441Z,4.77
2017-08-20T01:00:49.355Z,4.10
2017-08-20T01:03:19.274Z,5.37
2017-08-20T01:05:49.157Z,5.33
2017-08-20T01:08:19.047Z,5.03
2017-08-20T01:10:48.937Z,4.90
2017-08-20T01:13:18.821Z,4.73
2017-08-20T01:15:48.695Z,4.80
2017-08-20T01:18:18.613Z,4.73
2017-08-20T01:20:48.492Z,3.83
2017-08-20T01:23:18.382Z,3.13
2017-08-20T01:25:48.821Z,4.00
2017-08-20T01:28:18.685Z,3.70
2017-08-20T01:30:48.537Z,2.90
2017-08-20T01:33:18.458Z,3.47
2017-08-20T01:35:48.313Z,3.77
2017-08-20T01:38:18.293Z,3.70
2017-08-20T01:40:48.150Z,4.00
2017-08-20T01:43:18.021Z,3.10
2017-08-20T01:45:47.876Z,3.20
2017-08-20T01:48:17.756Z,4.20
2017-08-20T01:50:47.710Z,3.87
2017-08-20T01:53:17.575Z,3.87
2017-08-20T01:55:47.473Z,3.50
2017-08-20T01:58:17.332Z,3.03
2017-08-20T02:00:47.312Z,3.73
2017-08-20T02:03:17.183Z,3.57
2017-08-20T02:05:47.078Z,3.70
2017-08-20T02:08:16.983Z,2.93
2017-08-20T02:10:46.870Z,3.40
2017-08-20T02:13:16.744Z,3.50
2017-08-20T02:15:46.622Z,4.10
2017-08-20T02:18:16.508Z,4.03
2017-08-20T02:20:46.362Z,3.90
2017-08-20T02:23:16.250Z,4.40
2017-08-20T02:25:46.118Z,3.93
2017-08-20T02:28:16.035Z,4.17
2017-08-20T02:30:45.945Z,4.57
2017-08-20T02:33:15.837Z,3.60
2017-08-20T02:35:45.738Z,4.60
2017-08-20T02:38:15.595Z,5.23
2017-08-20T02:40:45.641Z,4.33
2017-08-20T02:43:15.526Z,5.20
2017-08-20T02:45:45.418Z,5.20
2017-08-20T02:48:15.331Z,4.77
2017-08-20T02:50:45.252Z,5.73
2017-08-20T02:53:15.096Z,4.90
2017-08-20T02:55:44.993Z,5.60
2017-08-20T02:58:14.855Z,6.40
2017-08-20T03:00:44.788Z,5.83
2017-08-20T03:03:14.695Z,5.90
2017-08-20T03:05:44.558Z,5.50
2017-08-20T03:08:14.441Z,5.33
2017-08-20T03:10:44.292Z,4.70
2017-08-20T03:13:14.145Z,4.80
2017-08-20T03:15:43.978Z,4.40
2017-08-20T03:18:13.899Z,4.10
2017-08-20T03:20:43.783Z,4.50
2017-08-20T03:23:13.647Z,5.20
2017-08-20T03:25:43.556Z,4.50
2017-08-20T03:28:13.577Z,4.20
2017-08-20T03:30:43.472Z,4.60
2017-08-20T03:33:13.348Z,4.10
2017-08-20T03:35:43.222Z,4.23
2017-08-20T03:38:13.090Z,4.57
2017-08-20T03:40:42.998Z,6.13
2017-08-20T03:43:12.875Z,4.97
2017-08-20T03:45:42.789Z,4.40
2017-08-20T03:48:12.669Z,4.60
2017-08-20T03:50:42.536Z,4.50
2017-08-20T03:53:12.420Z,4.00
2017-08-20T03:55:42.324Z,4.77
2017-08-20T03:58:12.235Z,4.13
2017-08-20T04:00:42.111Z,5.47
2017-08-20T04:03:12.000Z,5.20
2017-08-20T04:05:41.871Z,4.63
2017-08-20T04:08:11.825Z,5.67
2017-08-20T04:10:41.705Z,5.50
2017-08-20T04:13:11.580Z,5.20
2017-08-20T04:15:41.498Z,5.57
2017-08-20T04:18:11.382Z,4.53
2017-08-20T04:20:41.250Z,5.87
2017-08-20T04:23:11.113Z,5.70
2017-08-20T04:25:41.069Z,5.33
2017-08-20T04:28:10.978Z,5.73
2017-08-20T04:30:40.897Z,5.23
2017-08-20T04:33:10.777Z,4.47
2017-08-20T04:35:40.653Z,5.37
2017-08-20T04:38:10.588Z,4.70
2017-08-20T04:40:40.489Z,4.90
2017-08-20T04:43:10.419Z,5.17
2017-08-20T04:45:40.288Z,5.00
2017-08-20T04:48:10.168Z,5.70
2017-08-20T04:50:40.065Z,5.80
2017-08-20T04:53:09.940Z,5.50
2017-08-20T04:55:39.789Z,5.00
2017-08-20T04:58:09.688Z,5.37
2017-08-20T05:00:39.592Z,5.00
2017-08-20T05:03:09.488Z,5.10
2017-08-20T05:05:39.371Z,4.13
2017-08-20T05:08:09.224Z,4.80
2017-08-20T05:10:39.106Z,4.40
2017-08-20T05:13:08.974Z,4.70
2017-08-20T05:15:38.858Z,4.60
2017-08-20T05:18:08.708Z,4.30
2017-08-20T05:20:38.585Z,4.73
2017-08-20T05:23:08.459Z,4.30
2017-08-20T05:25:38.311Z,4.13
2017-08-20T05:28:08.351Z,6.57
2017-08-20T05:30:38.256Z,4.33
2017-08-20T05:33:08.145Z,4.40
2017-08-20T05:35:38.018Z,4.60
2017-08-20T05:38:07.937Z,5.20
2017-08-20T05:40:37.797Z,4.40
2017-08-20T05:43:07.681Z,4.70
2017-08-20T05:45:37.588Z,4.10
2017-08-20T05:48:07.567Z,4.33
2017-08-20T05:50:37.637Z,4.37
2017-08-20T05:53:07.491Z,4.10
2017-08-20T05:55:37.438Z,3.77
2017-08-20T05:58:07.355Z,4.07
2017-08-20T06:00:37.272Z,3.70
2017-08-20T06:03:07.181Z,4.73
2017-08-20T06:05:37.097Z,3.80
2017-08-20T06:08:07.004Z,4.10
2017-08-20T06:10:36.937Z,4.13
2017-08-20T06:13:06.877Z,4.50
2017-08-20T06:15:36.747Z,4.00
2017-08-20T06:18:06.630Z,4.90
2017-08-20T06:20:36.651Z,3.80
2017-08-20T06:23:06.519Z,3.20
2017-08-20T06:25:36.361Z,3.53
2017-08-20T06:28:06.292Z,3.67
2017-08-20T06:30:36.203Z,3.90
2017-08-20T06:33:06.140Z,3.50
2017-08-20T06:35:35.996Z,3.40
2017-08-20T06:38:05.994Z,3.37
2017-08-20T06:40:35.862Z,3.07
2017-08-20T06:43:05.790Z,3.27
2017-08-20T06:45:35.677Z,3.00
2017-08-20T06:48:05.597Z,2.90
2017-08-20T06:50:35.481Z,2.90
2017-08-20T06:53:05.339Z,3.13
2017-08-20T06:55:35.269Z,4.73
2017-08-20T06:58:05.126Z,2.97
2017-08-20T07:00:35.036Z,2.87
2017-08-20T07:03:04.899Z,3.07
2017-08-20T07:05:34.788Z,2.30
2017-08-20T07:08:04.667Z,2.70
2017-08-20T07:10:34.543Z,2.30
2017-08-20T07:13:04.456Z,2.60
2017-08-20T07:15:34.318Z,2.47
2017-08-20T07:18:04.281Z,2.70
2017-08-20T07:20:34.158Z,2.37
2017-08-20T07:23:04.043Z,2.10
2017-08-20T07:25:33.906Z,2.53
2017-08-20T07:28:03.808Z,2.20
2017-08-20T07:30:33.720Z,2.40
2017-08-20T07:33:03.631Z,2.30
2017-08-20T07:35:33.527Z,2.67
2017-08-20T07:38:03.451Z,2.13
2017-08-20T07:40:33.338Z,2.07
2017-08-20T07:43:03.227Z,1.80
2017-08-20T07:45:33.125Z,2.40
2017-08-20T07:48:02.992Z,1.67
2017-08-20T07:50:32.900Z,1.53
2017-08-20T07:53:05.664Z,2.07
2017-08-20T07:55:35.596Z,1.83
2017-08-20T07:58:05.521Z,2.47
2017-08-20T08:00:35.445Z,1.67
2017-08-20T08:03:05.354Z,2.07
2017-08-20T08:05:35.287Z,1.67
2017-08-20T08:08:05.153Z,1.47
2017-08-20T08:10:35.055Z,1.90
2017-08-20T08:13:04.945Z,2.20
2017-08-20T08:15:34.913Z,2.57
2017-08-20T08:18:04.803Z,2.33
2017-08-20T08:20:35.013Z,2.23
2017-08-20T08:23:04.955Z,2.40
2017-08-20T08:25:34.827Z,2.00
2017-08-20T08:28:04.726Z,1.90
2017-08-20T08:30:34.604Z,2.50
2017-08-20T08:45:03.514Z,2.50
2017-08-20T08:50:19.309Z,1.73
2017-08-20T08:52:49.166Z,2.10
2017-08-20T08:55:19.093Z,2.40
2017-08-20T08:57:48.973Z,2.80
2017-08-20T09:00:18.904Z,1.90
2017-08-20T09:02:48.784Z,1.73
2017-08-20T09:05:18.671Z,2.47
2017-08-20T09:07:49.462Z,2.07
2017-08-20T09:10:19.338Z,2.10
2017-08-20T09:12:49.232Z,2.00
2017-08-20T09:15:19.126Z,2.57
2017-08-20T09:17:49.038Z,1.97
2017-08-20T09:20:18.915Z,2.43
2017-08-20T09:22:48.934Z,1.90
2017-08-20T09:25:18.820Z,1.90
2017-08-20T09:27:50.236Z,2.67
2017-08-20T09:30:21.320Z,2.60
2017-08-20T09:32:54.127Z,2.33
2017-08-20T09:35:26.082Z,2.47
2017-08-20T09:37:56.965Z,1.70
2017-08-20T09:40:28.694Z,2.40
2017-08-20T09:42:58.552Z,2.53
2017-08-20T09:45:29.345Z,1.83
2017-08-20T09:48:00.571Z,2.27
2017-08-20T09:50:35.167Z,1.80
2017-08-20T09:53:07.910Z,2.33
2017-08-20T09:55:40.310Z,1.63
2017-08-20T09:58:13.956Z,2.00
2017-08-20T10:00:55.372Z,1.83
2017-08-20T10:03:26.900Z,1.70
2017-08-20T10:05:58.286Z,1.60
2017-08-20T10:08:32.919Z,2.50
2017-08-20T10:11:09.606Z,1.83
2017-08-20T10:13:39.809Z,1.90
2017-08-20T10:16:09.703Z,2.20
2017-08-20T10:18:39.615Z,2.10
2017-08-20T10:21:09.488Z,1.87
2017-08-20T10:23:39.392Z,2.60
2017-08-20T10:26:09.405Z,1.60
2017-08-20T10:28:39.316Z,1.77
2017-08-20T10:31:09.191Z,1.97
2017-08-20T10:33:39.129Z,2.30
2017-08-20T10:36:09.041Z,2.13
2017-08-20T10:38:38.984Z,2.27
2017-08-20T10:41:08.895Z,2.53
2017-08-20T10:43:38.828Z,1.97
2017-08-20T10:46:08.808Z,1.77
2017-08-20T10:48:38.674Z,1.90
2017-08-20T10:51:08.569Z,3.33
2017-08-20T10:53:38.453Z,1.93
2017-08-20T10:56:08.361Z,1.27
2017-08-20T10:58:38.213Z,1.50
2017-08-20T11:01:08.131Z,1.50
2017-08-20T11:03:38.058Z,1.97
2017-08-20T11:06:07.973Z,2.33
2017-08-20T11:08:37.879Z,2.43
2017-08-20T11:11:07.836Z,2.40
2017-08-20T11:13:37.742Z,2.73
2017-08-20T11:16:07.626Z,3.50
2017-08-20T11:18:37.569Z,2.83
2017-08-20T11:21:07.475Z,3.40
2017-08-20T11:23:37.400Z,3.37
2017-08-20T11:26:07.285Z,3.90
2017-08-20T11:28:37.215Z,3.03
2017-08-20T11:31:07.096Z,3.83
2017-08-20T11:33:37.014Z,2.70
2017-08-20T11:36:06.899Z,3.60
2017-08-20T11:38:36.789Z,3.60
2017-08-20T11:41:06.727Z,3.00
2017-08-20T11:43:36.609Z,3.77
2017-08-20T11:46:06.520Z,3.17
2017-08-20T11:48:36.497Z,2.90
2017-08-20T11:51:06.410Z,2.37
2017-08-20T11:53:36.311Z,4.10
2017-08-20T11:56:06.229Z,2.47
2017-08-20T11:58:36.111Z,2.20
2017-08-20T12:01:06.018Z,1.97
2017-08-20T12:03:35.928Z,2.00
2017-08-20T12:06:05.840Z,2.17
2017-08-20T12:08:35.786Z,1.70
2017-08-20T12:11:05.689Z,1.53
2017-08-20T12:13:35.634Z,1.60
2017-08-20T12:16:05.600Z,1.83
2017-08-20T12:18:35.608Z,1.50
2017-08-20T12:21:05.490Z,1.70
2017-08-20T12:23:35.419Z,1.50
2017-08-20T12:26:05.370Z,1.60
2017-08-20T12:28:35.345Z,1.53
2017-08-20T12:31:05.224Z,1.90
2017-08-20T12:33:35.179Z,3.10
2017-08-20T12:36:05.073Z,1.40
2017-08-20T12:38:34.990Z,1.50
2017-08-20T12:41:04.909Z,1.77
2017-08-20T12:43:34.804Z,1.63
2017-08-20T12:46:04.730Z,1.50
2017-08-20T12:48:34.594Z,1.63
2017-08-20T12:51:04.486Z,2.17
2017-08-20T12:53:34.374Z,1.80
2017-08-20T12:56:04.266Z,1.87
2017-08-20T12:58:34.184Z,2.30
2017-08-20T13:01:04.112Z,1.73
2017-08-20T13:03:33.996Z,1.83
2017-08-20T13:06:03.897Z,1.33
2017-08-20T13:08:33.871Z,1.60
2017-08-20T13:11:03.736Z,1.67
2017-08-20T13:13:33.666Z,1.63
2017-08-20T13:16:03.550Z,1.40
2017-08-20T13:18:33.595Z,1.83
2017-08-20T13:21:03.507Z,1.73
2017-08-20T13:23:33.391Z,1.83
2017-08-20T13:26:03.890Z,1.70
2017-08-20T13:28:33.807Z,1.93
2017-08-20T13:31:03.703Z,1.60
2017-08-20T13:33:33.606Z,1.40
2017-08-20T13:36:03.975Z,1.90
2017-08-20T13:38:33.875Z,2.03
2017-08-20T13:41:03.764Z,1.67
2017-08-20T13:43:33.684Z,1.90
2017-08-20T13:46:03.909Z,1.60
2017-08-20T13:48:33.784Z,1.73
2017-08-20T13:51:04.086Z,1.80
2017-08-20T13:53:34.032Z,1.50
2017-08-20T13:56:03.900Z,1.50
2017-08-20T13:58:33.813Z,1.10
2017-08-20T14:01:03.700Z,1.50
2017-08-20T14:03:33.581Z,1.27
2017-08-20T14:06:03.496Z,1.13
2017-08-20T14:08:33.409Z,0.80
2017-08-20T14:11:03.291Z,0.80
2017-08-20T14:13:33.264Z,1.10
2017-08-20T14:16:03.166Z,1.40
2017-08-20T14:18:33.133Z,1.00
2017-08-20T14:21:04.673Z,1.00
2017-08-20T14:23:35.464Z,1.00
2017-08-20T14:26:05.540Z,1.20
2017-08-20T14:28:35.449Z,1.20
2017-08-20T14:31:05.362Z,1.27
2017-08-20T14:33:35.226Z,1.17
2017-08-20T14:36:05.212Z,1.30
2017-08-20T14:38:35.178Z,1.30
2017-08-20T14:41:05.112Z,1.43
2017-08-20T14:43:35.127Z,1.40
2017-08-20T14:46:05.130Z,1.30
2017-08-20T14:48:35.024Z,1.07
2017-08-20T14:51:04.892Z,0.97
2017-08-20T14:53:34.781Z,0.60
2017-08-20T14:56:04.689Z,0.60
2017-08-20T14:58:34.634Z,0.80
2017-08-20T15:01:04.509Z,0.40
2017-08-20T15:03:34.426Z,0.67
2017-08-20T15:06:04.375Z,0.80
2017-08-20T15:08:34.274Z,1.00
2017-08-20T15:11:04.147Z,1.43
2017-08-20T15:13:34.067Z,1.63
2017-08-20T15:16:03.967Z,1.80
2017-08-20T15:18:33.882Z,1.47
2017-08-20T15:21:03.777Z,1.40
2017-08-20T15:23:33.674Z,1.37
2017-08-20T15:26:03.571Z,1.60
2017-08-20T15:28:33.432Z,1.70
2017-08-20T15:31:03.342Z,1.77
2017-08-20T15:33:33.227Z,1.40
2017-08-20T15:36:03.162Z,1.90
2017-08-20T15:38:33.166Z,1.90
2017-08-20T15:41:03.164Z,1.87
2017-08-20T15:43:33.015Z,1.80
2017-08-20T15:46:02.925Z,2.07
2017-08-20T15:48:32.838Z,1.53
2017-08-20T15:51:02.762Z,2.37
2017-08-20T15:53:32.654Z,2.10
2017-08-20T15:56:02.545Z,2.10
2017-08-20T15:58:32.544Z,2.17
2017-08-20T16:01:02.414Z,1.60
2017-08-20T16:03:32.322Z,2.47
2017-08-20T16:06:02.210Z,1.70
2017-08-20T16:08:32.138Z,1.43
2017-08-20T16:11:01.995Z,1.53
2017-08-20T16:13:32.799Z,1.37
2017-08-20T16:16:02.666Z,1.73
2017-08-20T16:18:32.576Z,1.40
2017-08-20T16:21:02.447Z,1.13
2017-08-20T16:23:32.369Z,1.33
2017-08-20T16:26:02.442Z,1.90
2017-08-20T16:28:32.350Z,0.83
2017-08-20T16:31:04.044Z,1.70
2017-08-20T16:33:33.945Z,1.57
2017-08-20T16:36:03.928Z,1.80
2017-08-20T16:38:33.889Z,1.40
2017-08-20T16:41:04.324Z,1.30
2017-08-20T16:43:34.256Z,1.10
2017-08-20T16:46:04.157Z,1.67
2017-08-20T16:48:34.058Z,1.63
2017-08-20T16:51:03.988Z,1.10
2017-08-20T16:53:33.887Z,1.23
2017-08-20T16:56:03.777Z,1.60
2017-08-20T16:58:33.743Z,1.13
2017-08-20T17:01:03.662Z,1.40
2017-08-20T17:03:33.548Z,1.60
2017-08-20T17:06:03.597Z,1.50
2017-08-20T17:08:33.468Z,1.80
2017-08-20T17:11:03.431Z,1.57
2017-08-20T17:13:33.460Z,1.40
2017-08-20T17:16:03.837Z,1.27
2017-08-20T17:18:33.772Z,4.10
2017-08-20T17:21:03.758Z,1.73
2017-08-20T17:23:35.753Z,1.87
2017-08-20T17:26:05.666Z,1.80
2017-08-20T17:28:35.842Z,1.27
2017-08-20T17:31:05.767Z,2.00
2017-08-20T17:33:35.666Z,1.60
2017-08-20T17:36:05.896Z,1.30
2017-08-20T17:38:36.472Z,1.70
2017-08-20T17:41:06.411Z,1.40
2017-08-20T17:43:36.332Z,1.40
2017-08-20T17:46:07.387Z,1.17
2017-08-20T17:48:37.294Z,2.23
2017-08-20T17:51:07.266Z,1.70
2017-08-20T17:53:37.202Z,2.07
2017-08-20T17:56:07.108Z,1.10
2017-08-20T17:58:37.092Z,1.57
2017-08-20T18:01:07.006Z,2.57
2017-08-20T18:03:36.894Z,1.50
2017-08-20T18:06:06.795Z,2.00
2017-08-20T18:08:37.447Z,2.90
2017-08-20T18:11:07.376Z,1.50
2017-08-20T18:13:37.753Z,1.20
2017-08-20T18:16:07.736Z,1.20
2017-08-20T18:18:37.958Z,1.50
2017-08-20T18:21:07.894Z,1.23
2017-08-20T18:23:37.979Z,1.53
2017-08-20T18:26:07.889Z,1.17
2017-08-20T18:28:37.970Z,1.60
2017-08-20T18:31:08.017Z,1.60
2017-08-20T18:33:37.992Z,1.10
2017-08-20T18:36:07.937Z,1.60
2017-08-20T18:38:37.897Z,1.83
2017-08-20T18:41:07.852Z,1.60
2017-08-20T18:43:37.739Z,1.37
2017-08-20T18:46:07.671Z,1.47
2017-08-20T18:48:37.689Z,1.67
2017-08-20T18:51:07.703Z,1.83
2017-08-20T18:53:37.726Z,1.70
2017-08-20T18:56:07.727Z,1.47
2017-08-20T18:58:37.696Z,1.80
2017-08-20T19:01:07.840Z,1.77
2017-08-20T19:03:37.813Z,2.00
2017-08-20T19:06:07.905Z,1.40
2017-08-20T19:08:37.902Z,1.97
2017-08-20T19:11:07.949Z,2.00
2017-08-20T19:13:37.968Z,2.17
2017-08-20T19:16:08.012Z,1.83
2017-08-20T19:18:38.031Z,1.50
2017-08-20T19:21:08.096Z,2.60
2017-08-20T19:23:38.102Z,3.37
2017-08-20T19:26:08.134Z,2.27
2017-08-20T19:28:38.139Z,2.10
2017-08-20T19:31:08.219Z,2.10
2017-08-20T19:33:38.289Z,2.77
2017-08-20T19:36:08.287Z,3.00
2017-08-20T19:38:38.312Z,2.20
2017-08-20T19:41:08.379Z,2.57
2017-08-20T19:43:38.303Z,2.53
2017-08-20T19:46:08.344Z,2.37
2017-08-20T19:48:38.291Z,2.60
2017-08-20T19:51:08.316Z,3.90
2017-08-20T19:53:38.323Z,2.33
2017-08-20T19:56:08.463Z,2.10
2017-08-20T19:58:38.465Z,2.10
2017-08-20T20:01:08.448Z,2.30
2017-08-20T20:03:38.351Z,3.13
2017-08-20T20:06:08.294Z,1.80
2017-08-20T20:08:38.208Z,1.93
2017-08-20T20:11:08.119Z,2.53
2017-08-20T20:13:37.988Z,2.50
2017-08-20T20:16:07.890Z,2.23
2017-08-20T20:18:37.807Z,2.40
2017-08-20T20:21:07.702Z,2.50
2017-08-20T20:23:37.694Z,1.90
2017-08-20T20:26:07.632Z,2.40
2017-08-20T20:28:37.580Z,2.00
2017-08-20T20:31:07.447Z,2.03
2017-08-20T20:33:37.354Z,2.13
2017-08-20T20:36:07.359Z,2.70
2017-08-20T20:38:37.347Z,2.10
2017-08-20T20:41:07.271Z,3.07
2017-08-20T20:43:37.227Z,2.57
2017-08-20T20:46:07.806Z,2.60
2017-08-20T20:48:37.798Z,1.77
2017-08-20T20:51:07.742Z,2.30
2017-08-20T20:53:37.678Z,2.37
2017-08-20T20:56:07.551Z,2.30
2017-08-20T20:58:37.476Z,2.37
2017-08-20T21:01:07.451Z,2.20
2017-08-20T21:03:37.364Z,2.30
2017-08-20T21:06:07.222Z,2.70
2017-08-20T21:08:37.095Z,2.23
2017-08-20T21:11:07.019Z,2.00
2017-08-20T21:13:36.894Z,2.33
2017-08-20T21:16:06.772Z,2.30
2017-08-20T21:18:36.661Z,2.90
2017-08-20T21:21:06.577Z,2.40
2017-08-20T21:23:36.443Z,2.67
2017-08-20T21:26:06.394Z,2.40
2017-08-20T21:28:36.243Z,2.27
2017-08-20T21:31:06.152Z,2.57
2017-08-20T21:33:36.015Z,2.63
2017-08-20T21:36:05.960Z,2.20
2017-08-20T21:38:35.932Z,2.30
2017-08-20T21:41:05.829Z,3.33
2017-08-20T21:43:35.715Z,3.70
2017-08-20T21:46:05.618Z,3.20
2017-08-20T21:48:35.534Z,3.03
2017-08-20T21:51:05.440Z,3.73
2017-08-20T21:53:35.368Z,2.80
2017-08-20T21:56:05.236Z,3.10
2017-08-20T21:58:35.161Z,2.83
2017-08-20T22:01:05.016Z,2.57
2017-08-20T22:03:34.964Z,2.53
2017-08-20T22:06:04.860Z,2.40
2017-08-20T22:08:34.766Z,2.33
2017-08-20T22:11:04.781Z,2.40
2017-08-20T22:13:34.687Z,1.97
2017-08-20T22:16:04.582Z,2.30
2017-08-20T22:18:34.448Z,2.47
2017-08-20T22:21:04.344Z,2.50
2017-08-20T22:23:34.190Z,2.10
2017-08-20T22:26:04.149Z,2.80
2017-08-20T22:28:34.059Z,2.73
2017-08-20T22:31:03.965Z,3.20
2017-08-20T22:33:33.869Z,3.47
2017-08-20T22:36:03.742Z,4.03
2017-08-20T22:38:33.879Z,3.07
2017-08-20T22:41:03.745Z,3.20
2017-08-20T22:43:33.661Z,4.17
2017-08-20T22:46:03.534Z,4.37
2017-08-20T22:48:33.571Z,2.87
2017-08-20T22:51:03.458Z,3.80
2017-08-20T22:53:33.361Z,3.47
2017-08-20T22:56:03.245Z,3.53
2017-08-20T22:58:33.167Z,3.63
2017-08-20T23:01:03.035Z,3.50
2017-08-20T23:03:32.957Z,3.93
2017-08-20T23:06:02.829Z,3.97
2017-08-20T23:08:32.743Z,4.60
2017-08-20T23:11:02.683Z,4.53
2017-08-20T23:13:32.553Z,4.90
2017-08-20T23:16:02.461Z,6.13
2017-08-20T23:18:32.335Z,4.63
2017-08-20T23:21:02.318Z,4.97
2017-08-20T23:23:32.209Z,4.90
2017-08-20T23:26:02.093Z,5.87
2017-08-20T23:28:31.995Z,3.90
2017-08-20T23:31:01.875Z,4.40
2017-08-20T23:33:31.725Z,4.60
2017-08-20T23:36:01.603Z,3.57
2017-08-20T23:38:31.549Z,3.53
2017-08-20T23:41:01.423Z,4.60
2017-08-20T23:43:31.326Z,4.00
2017-08-20T23:46:01.188Z,4.40
2017-08-20T23:48:31.104Z,3.70
2017-08-20T23:51:00.983Z,3.40
2017-08-20T23:53:30.917Z,4.90
2017-08-20T23:56:00.842Z,3.43
2017-08-20T23:58:30.737Z,4.70
